sensor_id;sensor_type;location;lat;lon;timestamp;P1;durP1;ratioP1;P2;durP2;ratioP2
8964;SDS011;4517;49.020;12.066;2022-12-17T00:00:26;52.87;;;24.40;;
8964;SDS011;4517;49.020;12.066;2022-12-17T00:03:11;49.50;;;23.37;;
8964;SDS011;4517;49.020;12.066;2022-12-17T00:05:56;51.23;;;23.53;;
8964;SDS011;4517;49.020;12.066;2022-12-17T00:08:40;55.40;;;22.80;;
8964;SDS011;4517;49.020;12.066;2022-12-17T00:11:24;58.63;;;23.47;;
8964;SDS011;4517;49.020;12.066;2022-12-17T00:14:09;50.47;;;23.50;;
8964;SDS011;4517;49.020;12.066;2022-12-17T00:16:53;52.40;;;24.00;;
8964;SDS011;4517;49.020;12.066;2022-12-17T00:19:38;51.03;;;23.90;;
8964;SDS011;4517;49.020;12.066;2022-12-17T00:22:21;49.93;;;23.43;;
8964;SDS011;4517;49.020;12.066;2022-12-17T00:25:06;54.17;;;23.40;;
8964;SDS011;4517;49.020;12.066;2022-12-17T00:27:51;53.57;;;24.73;;
8964;SDS011;4517;49.020;12.066;2022-12-17T00:30:35;56.10;;;24.23;;
8964;SDS011;4517;49.020;12.066;2022-12-17T00:33:19;58.40;;;25.30;;
8964;SDS011;4517;49.020;12.066;2022-12-17T00:36:04;49.13;;;23.80;;
8964;SDS011;4517;49.020;12.066;2022-12-17T00:38:48;47.47;;;23.27;;
8964;SDS011;4517;49.020;12.066;2022-12-17T00:41:32;56.40;;;24.83;;
8964;SDS011;4517;49.020;12.066;2022-12-17T00:44:16;47.03;;;23.50;;
8964;SDS011;4517;49.020;12.066;2022-12-17T00:47:00;52.33;;;22.80;;
8964;SDS011;4517;49.020;12.066;2022-12-17T00:49:45;59.80;;;25.10;;
8964;SDS011;4517;49.020;12.066;2022-12-17T00:52:29;46.27;;;23.97;;
8964;SDS011;4517;49.020;12.066;2022-12-17T00:55:13;57.90;;;25.07;;
8964;SDS011;4517;49.020;12.066;2022-12-17T00:57:57;47.93;;;21.63;;
8964;SDS011;4517;49.020;12.066;2022-12-17T01:00:41;54.03;;;24.27;;
8964;SDS011;4517;49.020;12.066;2022-12-17T01:03:26;49.70;;;24.23;;
8964;SDS011;4517;49.020;12.066;2022-12-17T01:06:11;47.63;;;23.63;;
8964;SDS011;4517;49.020;12.066;2022-12-17T01:08:56;46.83;;;20.97;;
8964;SDS011;4517;49.020;12.066;2022-12-17T01:11:40;48.87;;;23.03;;
8964;SDS011;4517;49.020;12.066;2022-12-17T01:14:24;52.10;;;23.10;;
8964;SDS011;4517;49.020;12.066;2022-12-17T01:17:08;48.20;;;22.00;;
8964;SDS011;4517;49.020;12.066;2022-12-17T01:19:53;50.57;;;22.77;;
8964;SDS011;4517;49.020;12.066;2022-12-17T01:22:37;57.10;;;24.07;;
8964;SDS011;4517;49.020;12.066;2022-12-17T01:25:21;47.10;;;22.30;;
8964;SDS011;4517;49.020;12.066;2022-12-17T01:28:05;55.97;;;22.13;;
8964;SDS011;4517;49.020;12.066;2022-12-17T01:30:49;48.60;;;23.47;;
8964;SDS011;4517;49.020;12.066;2022-12-17T01:33:33;48.53;;;23.20;;
8964;SDS011;4517;49.020;12.066;2022-12-17T01:36:17;46.27;;;23.33;;
8964;SDS011;4517;49.020;12.066;2022-12-17T01:39:01;56.17;;;23.77;;
8964;SDS011;4517;49.020;12.066;2022-12-17T01:41:45;55.43;;;24.77;;
8964;SDS011;4517;49.020;12.066;2022-12-17T01:44:49;50.70;;;21.90;;
8964;SDS011;4517;49.020;12.066;2022-12-17T01:47:48;44.67;;;21.40;;
8964;SDS011;4517;49.020;12.066;2022-12-17T01:50:37;49.97;;;23.00;;
8964;SDS011;4517;49.020;12.066;2022-12-17T01:53:26;47.20;;;23.27;;
8964;SDS011;4517;49.020;12.066;2022-12-17T01:56:14;46.93;;;22.40;;
8964;SDS011;4517;49.020;12.066;2022-12-17T01:58:59;48.20;;;22.93;;
8964;SDS011;4517;49.020;12.066;2022-12-17T02:01:45;45.63;;;21.73;;
8964;SDS011;4517;49.020;12.066;2022-12-17T02:04:29;48.43;;;22.77;;
8964;SDS011;4517;49.020;12.066;2022-12-17T02:13:58;53.30;;;23.77;;
8964;SDS011;4517;49.020;12.066;2022-12-17T02:16:53;55.77;;;23.20;;
8964;SDS011;4517;49.020;12.066;2022-12-17T02:19:45;47.63;;;22.87;;
8964;SDS011;4517;49.020;12.066;2022-12-17T02:25:56;49.70;;;21.70;;
8964;SDS011;4517;49.020;12.066;2022-12-17T02:28:50;44.63;;;22.03;;
8964;SDS011;4517;49.020;12.066;2022-12-17T02:31:43;48.80;;;22.10;;
8964;SDS011;4517;49.020;12.066;2022-12-17T02:34:28;46.43;;;21.60;;
8964;SDS011;4517;49.020;12.066;2022-12-17T02:37:12;46.50;;;22.43;;
8964;SDS011;4517;49.020;12.066;2022-12-17T02:39:56;48.40;;;23.87;;
8964;SDS011;4517;49.020;12.066;2022-12-17T02:42:41;47.23;;;21.77;;
8964;SDS011;4517;49.020;12.066;2022-12-17T02:45:27;41.93;;;19.77;;
8964;SDS011;4517;49.020;12.066;2022-12-17T02:48:12;45.37;;;21.80;;
8964;SDS011;4517;49.020;12.066;2022-12-17T02:50:56;45.03;;;22.40;;
8964;SDS011;4517;49.020;12.066;2022-12-17T02:53:42;48.73;;;21.83;;
8964;SDS011;4517;49.020;12.066;2022-12-17T02:56:27;42.57;;;19.90;;
8964;SDS011;4517;49.020;12.066;2022-12-17T02:59:12;41.90;;;20.63;;
8964;SDS011;4517;49.020;12.066;2022-12-17T03:01:56;47.97;;;22.07;;
8964;SDS011;4517;49.020;12.066;2022-12-17T03:04:40;46.63;;;22.10;;
8964;SDS011;4517;49.020;12.066;2022-12-17T03:07:24;42.47;;;22.00;;
8964;SDS011;4517;49.020;12.066;2022-12-17T03:10:08;45.17;;;21.93;;
8964;SDS011;4517;49.020;12.066;2022-12-17T03:12:52;40.33;;;21.07;;
8964;SDS011;4517;49.020;12.066;2022-12-17T03:15:36;40.83;;;19.60;;
8964;SDS011;4517;49.020;12.066;2022-12-17T03:18:20;46.23;;;22.10;;
8964;SDS011;4517;49.020;12.066;2022-12-17T03:21:04;42.20;;;20.10;;
8964;SDS011;4517;49.020;12.066;2022-12-17T03:23:48;46.07;;;21.23;;
8964;SDS011;4517;49.020;12.066;2022-12-17T03:26:32;53.90;;;22.13;;
8964;SDS011;4517;49.020;12.066;2022-12-17T03:29:16;39.87;;;19.67;;
8964;SDS011;4517;49.020;12.066;2022-12-17T03:32:00;39.80;;;19.33;;
8964;SDS011;4517;49.020;12.066;2022-12-17T03:34:44;43.27;;;21.13;;
8964;SDS011;4517;49.020;12.066;2022-12-17T03:37:28;47.90;;;19.93;;
8964;SDS011;4517;49.020;12.066;2022-12-17T03:40:12;48.80;;;21.87;;
8964;SDS011;4517;49.020;12.066;2022-12-17T03:42:56;43.63;;;21.30;;
8964;SDS011;4517;49.020;12.066;2022-12-17T03:45:40;44.40;;;20.00;;
8964;SDS011;4517;49.020;12.066;2022-12-17T03:48:24;36.20;;;19.20;;
8964;SDS011;4517;49.020;12.066;2022-12-17T03:51:08;44.63;;;20.37;;
8964;SDS011;4517;49.020;12.066;2022-12-17T03:53:52;45.37;;;20.10;;
8964;SDS011;4517;49.020;12.066;2022-12-17T03:56:36;46.57;;;19.90;;
8964;SDS011;4517;49.020;12.066;2022-12-17T03:59:20;36.00;;;19.50;;
8964;SDS011;4517;49.020;12.066;2022-12-17T04:02:04;42.23;;;20.17;;
8964;SDS011;4517;49.020;12.066;2022-12-17T04:04:48;40.13;;;20.53;;
8964;SDS011;4517;49.020;12.066;2022-12-17T04:07:32;48.10;;;19.90;;
8964;SDS011;4517;49.020;12.066;2022-12-17T04:10:16;41.10;;;19.50;;
8964;SDS011;4517;49.020;12.066;2022-12-17T04:13:00;50.43;;;20.00;;
8964;SDS011;4517;49.020;12.066;2022-12-17T04:15:44;43.80;;;19.23;;
8964;SDS011;4517;49.020;12.066;2022-12-17T04:18:29;40.43;;;20.97;;
8964;SDS011;4517;49.020;12.066;2022-12-17T04:21:23;41.07;;;18.77;;
8964;SDS011;4517;49.020;12.066;2022-12-17T04:24:08;50.07;;;22.23;;
8964;SDS011;4517;49.020;12.066;2022-12-17T04:26:52;44.73;;;20.70;;
8964;SDS011;4517;49.020;12.066;2022-12-17T04:29:36;43.03;;;19.27;;
8964;SDS011;4517;49.020;12.066;2022-12-17T04:32:20;38.87;;;19.70;;
8964;SDS011;4517;49.020;12.066;2022-12-17T04:35:04;44.97;;;19.87;;
8964;SDS011;4517;49.020;12.066;2022-12-17T04:37:48;46.20;;;20.23;;
8964;SDS011;4517;49.020;12.066;2022-12-17T04:40:33;40.27;;;18.10;;
8964;SDS011;4517;49.020;12.066;2022-12-17T04:43:16;43.23;;;18.13;;
8964;SDS011;4517;49.020;12.066;2022-12-17T04:46:00;42.70;;;20.23;;
8964;SDS011;4517;49.020;12.066;2022-12-17T04:48:44;35.93;;;17.87;;
8964;SDS011;4517;49.020;12.066;2022-12-17T04:51:29;51.93;;;19.80;;
8964;SDS011;4517;49.020;12.066;2022-12-17T04:54:13;37.27;;;17.60;;
8964;SDS011;4517;49.020;12.066;2022-12-17T04:56:57;39.50;;;18.57;;
8964;SDS011;4517;49.020;12.066;2022-12-17T04:59:41;37.40;;;19.07;;
8964;SDS011;4517;49.020;12.066;2022-12-17T05:02:25;39.70;;;19.27;;
8964;SDS011;4517;49.020;12.066;2022-12-17T05:05:09;36.97;;;18.23;;
8964;SDS011;4517;49.020;12.066;2022-12-17T05:07:54;41.73;;;18.40;;
8964;SDS011;4517;49.020;12.066;2022-12-17T05:10:39;38.50;;;18.63;;
8964;SDS011;4517;49.020;12.066;2022-12-17T05:13:24;42.70;;;19.27;;
8964;SDS011;4517;49.020;12.066;2022-12-17T05:16:07;36.90;;;18.77;;
8964;SDS011;4517;49.020;12.066;2022-12-17T05:18:51;41.73;;;18.80;;
8964;SDS011;4517;49.020;12.066;2022-12-17T05:21:35;42.30;;;19.80;;
8964;SDS011;4517;49.020;12.066;2022-12-17T05:24:19;41.10;;;19.13;;
8964;SDS011;4517;49.020;12.066;2022-12-17T05:27:03;41.23;;;19.20;;
8964;SDS011;4517;49.020;12.066;2022-12-17T05:29:48;43.03;;;18.30;;
8964;SDS011;4517;49.020;12.066;2022-12-17T05:32:32;42.10;;;19.50;;
8964;SDS011;4517;49.020;12.066;2022-12-17T05:35:16;51.17;;;19.87;;
8964;SDS011;4517;49.020;12.066;2022-12-17T05:38:03;43.83;;;19.57;;
8964;SDS011;4517;49.020;12.066;2022-12-17T05:40:54;44.53;;;18.60;;
8964;SDS011;4517;49.020;12.066;2022-12-17T05:43:40;40.47;;;18.77;;
8964;SDS011;4517;49.020;12.066;2022-12-17T05:46:25;41.57;;;18.27;;
8964;SDS011;4517;49.020;12.066;2022-12-17T05:49:09;45.47;;;19.80;;
8964;SDS011;4517;49.020;12.066;2022-12-17T05:51:54;40.30;;;19.30;;
8964;SDS011;4517;49.020;12.066;2022-12-17T05:54:38;44.80;;;18.80;;
8964;SDS011;4517;49.020;12.066;2022-12-17T05:57:22;36.17;;;18.60;;
8964;SDS011;4517;49.020;12.066;2022-12-17T06:00:06;39.97;;;19.07;;
8964;SDS011;4517;49.020;12.066;2022-12-17T06:03:01;43.33;;;18.80;;
8964;SDS011;4517;49.020;12.066;2022-12-17T06:05:47;38.23;;;18.27;;
8964;SDS011;4517;49.020;12.066;2022-12-17T06:08:35;48.80;;;19.63;;
8964;SDS011;4517;49.020;12.066;2022-12-17T06:11:21;43.30;;;20.40;;
8964;SDS011;4517;49.020;12.066;2022-12-17T06:14:05;37.80;;;18.83;;
8964;SDS011;4517;49.020;12.066;2022-12-17T06:16:49;33.67;;;17.50;;
8964;SDS011;4517;49.020;12.066;2022-12-17T06:19:33;34.80;;;18.53;;
8964;SDS011;4517;49.020;12.066;2022-12-17T06:22:17;47.00;;;19.40;;
8964;SDS011;4517;49.020;12.066;2022-12-17T06:25:01;38.37;;;18.80;;
8964;SDS011;4517;49.020;12.066;2022-12-17T06:27:45;44.83;;;20.10;;
8964;SDS011;4517;49.020;12.066;2022-12-17T06:30:29;41.20;;;19.63;;
8964;SDS011;4517;49.020;12.066;2022-12-17T06:33:13;43.00;;;18.70;;
8964;SDS011;4517;49.020;12.066;2022-12-17T06:35:57;43.13;;;20.13;;
8964;SDS011;4517;49.020;12.066;2022-12-17T06:38:42;44.17;;;18.93;;
8964;SDS011;4517;49.020;12.066;2022-12-17T06:41:26;43.00;;;19.90;;
8964;SDS011;4517;49.020;12.066;2022-12-17T06:44:10;40.27;;;19.27;;
8964;SDS011;4517;49.020;12.066;2022-12-17T06:46:55;38.10;;;17.90;;
8964;SDS011;4517;49.020;12.066;2022-12-17T06:49:39;45.50;;;21.37;;
8964;SDS011;4517;49.020;12.066;2022-12-17T06:52:23;42.80;;;19.50;;
8964;SDS011;4517;49.020;12.066;2022-12-17T06:55:07;44.73;;;19.83;;
8964;SDS011;4517;49.020;12.066;2022-12-17T06:57:58;37.03;;;17.60;;
8964;SDS011;4517;49.020;12.066;2022-12-17T07:00:43;40.60;;;19.23;;
8964;SDS011;4517;49.020;12.066;2022-12-17T07:03:27;36.80;;;16.30;;
8964;SDS011;4517;49.020;12.066;2022-12-17T07:06:11;42.63;;;19.13;;
8964;SDS011;4517;49.020;12.066;2022-12-17T07:08:55;44.40;;;19.30;;
8964;SDS011;4517;49.020;12.066;2022-12-17T07:11:39;45.10;;;22.30;;
8964;SDS011;4517;49.020;12.066;2022-12-17T07:14:23;52.10;;;22.10;;
8964;SDS011;4517;49.020;12.066;2022-12-17T07:17:07;44.30;;;20.80;;
8964;SDS011;4517;49.020;12.066;2022-12-17T07:19:51;50.80;;;20.20;;
8964;SDS011;4517;49.020;12.066;2022-12-17T07:22:35;41.20;;;19.73;;
8964;SDS011;4517;49.020;12.066;2022-12-17T07:25:20;51.53;;;24.03;;
8964;SDS011;4517;49.020;12.066;2022-12-17T07:28:04;48.00;;;21.63;;
8964;SDS011;4517;49.020;12.066;2022-12-17T07:30:47;52.63;;;22.47;;
8964;SDS011;4517;49.020;12.066;2022-12-17T07:33:32;54.90;;;22.53;;
8964;SDS011;4517;49.020;12.066;2022-12-17T07:36:15;50.53;;;22.27;;
8964;SDS011;4517;49.020;12.066;2022-12-17T07:39:00;53.37;;;23.10;;
8964;SDS011;4517;49.020;12.066;2022-12-17T07:41:44;50.07;;;22.33;;
8964;SDS011;4517;49.020;12.066;2022-12-17T07:44:28;52.27;;;22.07;;
8964;SDS011;4517;49.020;12.066;2022-12-17T07:47:16;56.23;;;21.47;;
8964;SDS011;4517;49.020;12.066;2022-12-17T07:50:01;53.60;;;22.10;;
8964;SDS011;4517;49.020;12.066;2022-12-17T07:52:45;50.13;;;22.47;;
8964;SDS011;4517;49.020;12.066;2022-12-17T07:55:29;51.90;;;20.37;;
8964;SDS011;4517;49.020;12.066;2022-12-17T07:58:13;46.20;;;19.93;;
8964;SDS011;4517;49.020;12.066;2022-12-17T08:01:00;48.43;;;20.80;;
8964;SDS011;4517;49.020;12.066;2022-12-17T08:03:44;45.63;;;20.97;;
8964;SDS011;4517;49.020;12.066;2022-12-17T08:06:28;55.40;;;23.70;;
8964;SDS011;4517;49.020;12.066;2022-12-17T08:09:13;44.00;;;21.70;;
8964;SDS011;4517;49.020;12.066;2022-12-17T08:11:57;60.93;;;24.07;;
8964;SDS011;4517;49.020;12.066;2022-12-17T08:14:41;53.97;;;24.60;;
8964;SDS011;4517;49.020;12.066;2022-12-17T08:17:25;47.27;;;21.97;;
8964;SDS011;4517;49.020;12.066;2022-12-17T08:20:16;53.73;;;23.70;;
8964;SDS011;4517;49.020;12.066;2022-12-17T08:23:08;52.47;;;22.77;;
8964;SDS011;4517;49.020;12.066;2022-12-17T08:25:52;48.73;;;21.77;;
8964;SDS011;4517;49.020;12.066;2022-12-17T08:28:36;46.57;;;25.07;;
8964;SDS011;4517;49.020;12.066;2022-12-17T08:31:22;56.93;;;21.40;;
8964;SDS011;4517;49.020;12.066;2022-12-17T08:34:07;58.53;;;24.60;;
8964;SDS011;4517;49.020;12.066;2022-12-17T08:37:05;50.73;;;23.07;;
8964;SDS011;4517;49.020;12.066;2022-12-17T08:39:49;52.00;;;22.50;;
8964;SDS011;4517;49.020;12.066;2022-12-17T08:42:33;48.43;;;23.60;;
8964;SDS011;4517;49.020;12.066;2022-12-17T08:45:17;44.43;;;20.60;;
8964;SDS011;4517;49.020;12.066;2022-12-17T08:48:05;47.30;;;21.70;;
8964;SDS011;4517;49.020;12.066;2022-12-17T08:50:50;52.50;;;22.90;;
8964;SDS011;4517;49.020;12.066;2022-12-17T08:53:34;48.90;;;22.60;;
8964;SDS011;4517;49.020;12.066;2022-12-17T08:56:19;52.53;;;20.77;;
8964;SDS011;4517;49.020;12.066;2022-12-17T08:59:03;46.97;;;22.23;;
8964;SDS011;4517;49.020;12.066;2022-12-17T09:01:47;48.77;;;20.90;;
8964;SDS011;4517;49.020;12.066;2022-12-17T09:04:31;47.70;;;23.87;;
8964;SDS011;4517;49.020;12.066;2022-12-17T09:07:15;51.90;;;23.07;;
8964;SDS011;4517;49.020;12.066;2022-12-17T09:10:00;54.27;;;23.47;;
8964;SDS011;4517;49.020;12.066;2022-12-17T09:12:44;39.67;;;21.50;;
8964;SDS011;4517;49.020;12.066;2022-12-17T09:15:28;48.13;;;22.10;;
8964;SDS011;4517;49.020;12.066;2022-12-17T09:18:12;48.20;;;21.93;;
8964;SDS011;4517;49.020;12.066;2022-12-17T09:21:00;44.87;;;20.90;;
8964;SDS011;4517;49.020;12.066;2022-12-17T09:23:47;46.20;;;21.53;;
8964;SDS011;4517;49.020;12.066;2022-12-17T09:26:31;43.47;;;21.80;;
8964;SDS011;4517;49.020;12.066;2022-12-17T09:29:15;41.57;;;21.30;;
8964;SDS011;4517;49.020;12.066;2022-12-17T09:31:59;39.77;;;20.33;;
8964;SDS011;4517;49.020;12.066;2022-12-17T09:34:43;45.83;;;21.23;;
8964;SDS011;4517;49.020;12.066;2022-12-17T09:37:27;47.40;;;23.43;;
8964;SDS011;4517;49.020;12.066;2022-12-17T09:40:15;44.70;;;22.60;;
8964;SDS011;4517;49.020;12.066;2022-12-17T09:43:20;45.60;;;21.57;;
8964;SDS011;4517;49.020;12.066;2022-12-17T09:46:28;52.13;;;22.93;;
8964;SDS011;4517;49.020;12.066;2022-12-17T09:49:19;51.20;;;22.13;;
8964;SDS011;4517;49.020;12.066;2022-12-17T09:55:02;51.70;;;22.70;;
8964;SDS011;4517;49.020;12.066;2022-12-17T09:57:52;45.77;;;22.30;;
8964;SDS011;4517;49.020;12.066;2022-12-17T10:00:36;49.20;;;21.50;;
8964;SDS011;4517;49.020;12.066;2022-12-17T10:03:21;43.60;;;22.00;;
8964;SDS011;4517;49.020;12.066;2022-12-17T10:06:10;54.30;;;23.20;;
8964;SDS011;4517;49.020;12.066;2022-12-17T10:09:00;45.50;;;21.03;;
8964;SDS011;4517;49.020;12.066;2022-12-17T10:11:48;46.27;;;23.57;;
8964;SDS011;4517;49.020;12.066;2022-12-17T10:14:32;46.67;;;20.03;;
8964;SDS011;4517;49.020;12.066;2022-12-17T10:17:20;47.97;;;22.50;;
8964;SDS011;4517;49.020;12.066;2022-12-17T10:23:05;51.83;;;22.07;;
8964;SDS011;4517;49.020;12.066;2022-12-17T10:25:50;52.40;;;21.13;;
8964;SDS011;4517;49.020;12.066;2022-12-17T10:28:36;44.77;;;21.57;;
8964;SDS011;4517;49.020;12.066;2022-12-17T10:31:20;44.77;;;21.00;;
8964;SDS011;4517;49.020;12.066;2022-12-17T10:34:06;46.03;;;22.63;;
8964;SDS011;4517;49.020;12.066;2022-12-17T10:36:57;48.67;;;21.63;;
8964;SDS011;4517;49.020;12.066;2022-12-17T10:39:41;47.03;;;22.17;;
8964;SDS011;4517;49.020;12.066;2022-12-17T10:42:29;42.67;;;21.10;;
8964;SDS011;4517;49.020;12.066;2022-12-17T10:45:22;49.40;;;22.77;;
8964;SDS011;4517;49.020;12.066;2022-12-17T10:48:18;42.63;;;20.67;;
8964;SDS011;4517;49.020;12.066;2022-12-17T10:54:22;47.10;;;21.50;;
8964;SDS011;4517;49.020;12.066;2022-12-17T11:02:59;43.97;;;21.73;;
8964;SDS011;4517;49.020;12.066;2022-12-17T11:05:44;43.73;;;20.70;;
8964;SDS011;4517;49.020;12.066;2022-12-17T11:08:29;44.50;;;20.77;;
8964;SDS011;4517;49.020;12.066;2022-12-17T11:11:14;41.63;;;20.47;;
8964;SDS011;4517;49.020;12.066;2022-12-17T11:13:59;41.27;;;19.70;;
8964;SDS011;4517;49.020;12.066;2022-12-17T11:16:47;37.40;;;20.23;;
8964;SDS011;4517;49.020;12.066;2022-12-17T11:22:45;41.97;;;21.10;;
8964;SDS011;4517;49.020;12.066;2022-12-17T11:28:35;41.13;;;20.27;;
8964;SDS011;4517;49.020;12.066;2022-12-17T11:37:46;40.63;;;20.67;;
8964;SDS011;4517;49.020;12.066;2022-12-17T11:40:43;41.13;;;19.17;;
8964;SDS011;4517;49.020;12.066;2022-12-17T11:49:44;43.47;;;21.67;;
8964;SDS011;4517;49.020;12.066;2022-12-17T11:52:46;39.87;;;19.97;;
8964;SDS011;4517;49.020;12.066;2022-12-17T11:58:48;37.70;;;18.30;;
8964;SDS011;4517;49.020;12.066;2022-12-17T12:04:33;44.13;;;22.70;;
8964;SDS011;4517;49.020;12.066;2022-12-17T12:07:45;33.80;;;17.83;;
8964;SDS011;4517;49.020;12.066;2022-12-17T12:10:37;43.83;;;23.43;;
8964;SDS011;4517;49.020;12.066;2022-12-17T12:16:27;35.70;;;18.23;;
8964;SDS011;4517;49.020;12.066;2022-12-17T12:19:29;34.00;;;18.10;;
8964;SDS011;4517;49.020;12.066;2022-12-17T12:22:29;34.33;;;18.50;;
8964;SDS011;4517;49.020;12.066;2022-12-17T12:34:13;37.37;;;17.30;;
8964;SDS011;4517;49.020;12.066;2022-12-17T12:37:02;35.80;;;17.83;;
8964;SDS011;4517;49.020;12.066;2022-12-17T12:39:52;39.10;;;17.93;;
8964;SDS011;4517;49.020;12.066;2022-12-17T12:42:42;35.40;;;16.40;;
8964;SDS011;4517;49.020;12.066;2022-12-17T12:45:57;31.33;;;16.07;;
8964;SDS011;4517;49.020;12.066;2022-12-17T12:52:04;36.50;;;17.87;;
8964;SDS011;4517;49.020;12.066;2022-12-17T12:54:50;28.73;;;15.83;;
8964;SDS011;4517;49.020;12.066;2022-12-17T12:57:54;33.37;;;16.60;;
8964;SDS011;4517;49.020;12.066;2022-12-17T13:12:53;28.57;;;15.17;;
8964;SDS011;4517;49.020;12.066;2022-12-17T13:15:17;32.50;;;16.40;;
8964;SDS011;4517;49.020;12.066;2022-12-17T13:17:54;29.80;;;15.90;;
8964;SDS011;4517;49.020;12.066;2022-12-17T13:25:47;30.77;;;17.00;;
8964;SDS011;4517;49.020;12.066;2022-12-17T13:28:29;36.67;;;16.50;;
8964;SDS011;4517;49.020;12.066;2022-12-17T13:31:02;28.57;;;15.93;;
8964;SDS011;4517;49.020;12.066;2022-12-17T13:33:37;27.27;;;14.83;;
8964;SDS011;4517;49.020;12.066;2022-12-17T13:36:19;25.33;;;14.70;;
8964;SDS011;4517;49.020;12.066;2022-12-17T13:39:07;25.93;;;14.00;;
8964;SDS011;4517;49.020;12.066;2022-12-17T13:41:50;31.97;;;16.03;;
8964;SDS011;4517;49.020;12.066;2022-12-17T13:44:24;23.40;;;14.73;;
8964;SDS011;4517;49.020;12.066;2022-12-17T13:46:58;24.27;;;13.40;;
8964;SDS011;4517;49.020;12.066;2022-12-17T13:49:25;28.63;;;17.03;;
8964;SDS011;4517;49.020;12.066;2022-12-17T13:51:59;27.90;;;15.07;;
8964;SDS011;4517;49.020;12.066;2022-12-17T13:54:26;27.40;;;14.63;;
8964;SDS011;4517;49.020;12.066;2022-12-17T13:56:51;34.27;;;16.27;;
8964;SDS011;4517;49.020;12.066;2022-12-17T13:59:19;27.30;;;15.47;;
8964;SDS011;4517;49.020;12.066;2022-12-17T14:01:49;32.47;;;18.10;;
8964;SDS011;4517;49.020;12.066;2022-12-17T14:04:21;32.30;;;16.43;;
8964;SDS011;4517;49.020;12.066;2022-12-17T14:06:48;27.47;;;14.97;;
8964;SDS011;4517;49.020;12.066;2022-12-17T14:09:15;32.23;;;16.40;;
8964;SDS011;4517;49.020;12.066;2022-12-17T14:11:42;32.90;;;16.40;;
8964;SDS011;4517;49.020;12.066;2022-12-17T14:14:30;30.87;;;15.40;;
8964;SDS011;4517;49.020;12.066;2022-12-17T14:17:04;24.67;;;15.53;;
8964;SDS011;4517;49.020;12.066;2022-12-17T14:19:30;29.67;;;16.40;;
8964;SDS011;4517;49.020;12.066;2022-12-17T14:21:57;32.00;;;16.17;;
8964;SDS011;4517;49.020;12.066;2022-12-17T14:24:24;28.67;;;16.00;;
8964;SDS011;4517;49.020;12.066;2022-12-17T14:26:54;29.03;;;15.27;;
8964;SDS011;4517;49.020;12.066;2022-12-17T14:29:22;25.27;;;15.50;;
8964;SDS011;4517;49.020;12.066;2022-12-17T14:31:52;24.77;;;13.70;;
8964;SDS011;4517;49.020;12.066;2022-12-17T14:34:19;32.30;;;15.50;;
8964;SDS011;4517;49.020;12.066;2022-12-17T14:36:45;26.00;;;14.50;;
8964;SDS011;4517;49.020;12.066;2022-12-17T14:39:18;26.40;;;14.67;;
8964;SDS011;4517;49.020;12.066;2022-12-17T14:41:53;29.80;;;15.67;;
8964;SDS011;4517;49.020;12.066;2022-12-17T14:47:39;21.90;;;13.23;;
8964;SDS011;4517;49.020;12.066;2022-12-17T14:52:49;24.60;;;13.50;;
8964;SDS011;4517;49.020;12.066;2022-12-17T14:55:21;27.20;;;14.70;;
8964;SDS011;4517;49.020;12.066;2022-12-17T14:57:53;29.10;;;15.03;;
8964;SDS011;4517;49.020;12.066;2022-12-17T15:00:30;31.13;;;13.70;;
8964;SDS011;4517;49.020;12.066;2022-12-17T15:02:56;26.70;;;14.40;;
8964;SDS011;4517;49.020;12.066;2022-12-17T15:05:21;32.93;;;15.57;;
8964;SDS011;4517;49.020;12.066;2022-12-17T15:07:47;27.20;;;15.87;;
8964;SDS011;4517;49.020;12.066;2022-12-17T15:10:14;30.17;;;16.77;;
8964;SDS011;4517;49.020;12.066;2022-12-17T15:12:43;28.70;;;14.20;;
8964;SDS011;4517;49.020;12.066;2022-12-17T15:15:14;31.87;;;14.33;;
8964;SDS011;4517;49.020;12.066;2022-12-17T15:17:40;25.23;;;12.40;;
8964;SDS011;4517;49.020;12.066;2022-12-17T15:20:06;25.27;;;16.23;;
8964;SDS011;4517;49.020;12.066;2022-12-17T15:22:40;32.67;;;15.40;;
8964;SDS011;4517;49.020;12.066;2022-12-17T15:25:09;26.90;;;15.20;;
8964;SDS011;4517;49.020;12.066;2022-12-17T15:27:39;25.73;;;14.83;;
8964;SDS011;4517;49.020;12.066;2022-12-17T15:30:05;35.10;;;15.53;;
8964;SDS011;4517;49.020;12.066;2022-12-17T15:32:30;37.03;;;16.63;;
8964;SDS011;4517;49.020;12.066;2022-12-17T15:34:56;29.93;;;16.60;;
8964;SDS011;4517;49.020;12.066;2022-12-17T15:37:25;33.47;;;16.47;;
8964;SDS011;4517;49.020;12.066;2022-12-17T15:39:50;31.27;;;15.67;;
8964;SDS011;4517;49.020;12.066;2022-12-17T15:42:16;30.20;;;14.50;;
8964;SDS011;4517;49.020;12.066;2022-12-17T15:45:00;32.67;;;15.70;;
8964;SDS011;4517;49.020;12.066;2022-12-17T15:47:26;32.57;;;16.30;;
8964;SDS011;4517;49.020;12.066;2022-12-17T15:49:51;42.77;;;18.67;;
8964;SDS011;4517;49.020;12.066;2022-12-17T15:52:17;38.43;;;18.50;;
8964;SDS011;4517;49.020;12.066;2022-12-17T15:54:42;37.57;;;17.93;;
8964;SDS011;4517;49.020;12.066;2022-12-17T15:57:08;43.90;;;19.47;;
8964;SDS011;4517;49.020;12.066;2022-12-17T15:59:34;42.00;;;17.33;;
8964;SDS011;4517;49.020;12.066;2022-12-17T16:02:00;35.53;;;17.17;;
8964;SDS011;4517;49.020;12.066;2022-12-17T16:04:26;37.00;;;16.63;;
8964;SDS011;4517;49.020;12.066;2022-12-17T16:06:51;39.47;;;18.80;;
8964;SDS011;4517;49.020;12.066;2022-12-17T16:09:17;34.67;;;18.40;;
8964;SDS011;4517;49.020;12.066;2022-12-17T16:11:43;32.10;;;17.57;;
8964;SDS011;4517;49.020;12.066;2022-12-17T16:14:08;42.80;;;18.27;;
8964;SDS011;4517;49.020;12.066;2022-12-17T16:16:34;38.67;;;19.47;;
8964;SDS011;4517;49.020;12.066;2022-12-17T16:18:59;42.53;;;18.77;;
8964;SDS011;4517;49.020;12.066;2022-12-17T16:21:26;40.10;;;19.03;;
8964;SDS011;4517;49.020;12.066;2022-12-17T16:23:51;35.60;;;18.53;;
8964;SDS011;4517;49.020;12.066;2022-12-17T16:26:17;38.60;;;18.40;;
8964;SDS011;4517;49.020;12.066;2022-12-17T16:28:43;41.30;;;18.47;;
8964;SDS011;4517;49.020;12.066;2022-12-17T16:31:10;37.23;;;19.03;;
8964;SDS011;4517;49.020;12.066;2022-12-17T16:33:38;34.97;;;18.50;;
8964;SDS011;4517;49.020;12.066;2022-12-17T16:36:06;36.87;;;18.47;;
8964;SDS011;4517;49.020;12.066;2022-12-17T16:38:33;39.83;;;20.03;;
8964;SDS011;4517;49.020;12.066;2022-12-17T16:41:00;44.33;;;21.20;;
8964;SDS011;4517;49.020;12.066;2022-12-17T16:43:27;46.43;;;21.90;;
8964;SDS011;4517;49.020;12.066;2022-12-17T16:45:57;50.50;;;22.73;;
8964;SDS011;4517;49.020;12.066;2022-12-17T16:48:22;46.00;;;20.80;;
8964;SDS011;4517;49.020;12.066;2022-12-17T16:50:48;45.33;;;21.50;;
8964;SDS011;4517;49.020;12.066;2022-12-17T16:53:15;42.60;;;19.40;;
8964;SDS011;4517;49.020;12.066;2022-12-17T16:55:41;42.43;;;19.27;;
8964;SDS011;4517;49.020;12.066;2022-12-17T16:58:08;38.90;;;18.10;;
8964;SDS011;4517;49.020;12.066;2022-12-17T17:00:34;39.90;;;17.23;;
8964;SDS011;4517;49.020;12.066;2022-12-17T17:03:01;42.47;;;20.30;;
8964;SDS011;4517;49.020;12.066;2022-12-17T17:05:29;42.70;;;21.77;;
8964;SDS011;4517;49.020;12.066;2022-12-17T17:07:59;47.43;;;18.10;;
8964;SDS011;4517;49.020;12.066;2022-12-17T17:10:25;39.43;;;17.73;;
8964;SDS011;4517;49.020;12.066;2022-12-17T17:12:51;43.93;;;20.50;;
8964;SDS011;4517;49.020;12.066;2022-12-17T17:15:17;45.93;;;18.67;;
8964;SDS011;4517;49.020;12.066;2022-12-17T17:17:43;42.77;;;20.37;;
8964;SDS011;4517;49.020;12.066;2022-12-17T17:20:08;45.23;;;19.10;;
8964;SDS011;4517;49.020;12.066;2022-12-17T17:22:34;42.17;;;19.73;;
8964;SDS011;4517;49.020;12.066;2022-12-17T17:25:00;54.50;;;20.83;;